Torm Horizon — OYNM2 — position and weather

sailwx.info

Track history (hours):
 
Tides and Currents Weather Stations Pressure Air Temp Water Temp Dewpoint Dewpoint Depression Visibility Wind Speed Wind Dir Waves Ship Positions

Torm Horizon

Last reported at 2016-Jun-20 14:24 UTC. Time now 2016-Jun-25 03:20 UTC.
Position N 29°21' W 094°47'.

Length 183 m; draft 7.3 m.

Type: Ship. MMSI: 220566000.

Date/timePositionNaut miles runAvg speedWind from/ knotsBaromVisibWave heightAir tempDewpointWater temp
2016-Jun-20 14:24N 29°21' W 094°47'8 9.5
2016-Jun-20 13:33N 29°28' W 094°51'9 9.3
2016-Jun-20 12:33N 29°36' W 094°57'8 8.2
2016-Jun-20 11:33N 29°43' W 095°01'5 4.7
2016-Jun-20 10:33N 29°44' W 095°07'1 0.0
2016-Jun-18 07:09N 29°44' W 095°07'0 0.4
2016-Jun-18 06:33N 29°44' W 095°07'5 5.1
2016-Jun-18 05:34N 29°44' W 095°01'9 9.4
2016-Jun-18 04:33N 29°35' W 094°56'1111.0
2016-Jun-18 03:33N 29°26' W 094°50'8 8.3
2016-Jun-18 02:33N 29°21' W 094°42'8 7.7
2016-Jun-18 01:33N 29°16' W 094°35'2 0.1
2016-Jun-17 01:29N 29°15' W 094°36'0 0.0
2016-Jun-16 22:32N 29°15' W 094°36'0 0.0
2016-Jun-16 21:13N 29°15' W 094°36'0 0.0
2016-Jun-16 20:28N 29°15' W 094°36'0 0.0
2016-Jun-16 19:25N 29°15' W 094°36'0 0.0
2016-Jun-16 18:19N 29°15' W 094°36'0 0.0
2016-Jun-16 17:25N 29°15' W 094°36'0 0.0
2016-Jun-16 16:31N 29°15' W 094°36'0 0.0
2016-Jun-16 15:16N 29°15' W 094°36'0 0.0
2016-Jun-16 14:28N 29°15' W 094°36'0 0.0
2016-Jun-16 13:31N 29°15' W 094°36'0 0.0
2016-Jun-16 12:04N 29°15' W 094°36'0 0.0
2016-Jun-16 11:31N 29°15' W 094°36'0 0.0
2016-Jun-16 04:19N 29°15' W 094°36'0 0.0
2016-Jun-15 17:07N 29°15' W 094°36'0 0.0
2016-Jun-15 16:19N 29°15' W 094°36'9 0.2
2016-Jun-13 14:16N 29°21' W 094°44'0 0.0
2016-Jun-13 12:33N 29°21' W 094°44'3 1.8
2016-Jun-13 11:06N 29°21' W 094°47'712.5
2016-Jun-13 10:33N 29°27' W 094°51'1312.7
2016-Jun-13 09:33N 29°38' W 094°58'9 9.3
2016-Jun-13 08:33N 29°45' W 095°04'  
2016-Jun-10 23:31N 29°45' W 095°06'4 4.3
2016-Jun-10 22:33N 29°44' W 095°01'9 8.8
2016-Jun-10 21:33N 29°36' W 094°57'1111.6
2016-Jun-10 20:33N 29°26' W 094°50'  
Track history (hours):
 
Tides and Currents Weather Stations Pressure Air Temp Water Temp Dewpoint Dewpoint Depression Visibility Wind Speed Wind Dir Waves Ship Positions

Torm Horizon

Last reported at 2016-Jun-20 14:24 UTC. Time now 2016-Jun-25 03:20 UTC.
Position N 29°21' W 094°47'.

Length 183 m; draft 7.3 m.

Type: Ship. MMSI: 220566000.

Date/timePositionNaut miles runAvg speedWind from/ knotsBaromVisibWave heightAir tempDewpointWater temp
2016-Jun-20 14:24N 29°21' W 094°47'8 9.5
2016-Jun-20 13:33N 29°28' W 094°51'9 9.3
2016-Jun-20 12:33N 29°36' W 094°57'8 8.2
2016-Jun-20 11:33N 29°43' W 095°01'5 4.7
2016-Jun-20 10:33N 29°44' W 095°07'1 0.0
2016-Jun-18 07:09N 29°44' W 095°07'0 0.4
2016-Jun-18 06:33N 29°44' W 095°07'5 5.1
2016-Jun-18 05:34N 29°44' W 095°01'9 9.4
2016-Jun-18 04:33N 29°35' W 094°56'1111.0
2016-Jun-18 03:33N 29°26' W 094°50'8 8.3
2016-Jun-18 02:33N 29°21' W 094°42'8 7.7
2016-Jun-18 01:33N 29°16' W 094°35'2 0.1
2016-Jun-17 01:29N 29°15' W 094°36'0 0.0
2016-Jun-16 22:32N 29°15' W 094°36'0 0.0
2016-Jun-16 21:13N 29°15' W 094°36'0 0.0
2016-Jun-16 20:28N 29°15' W 094°36'0 0.0
2016-Jun-16 19:25N 29°15' W 094°36'0 0.0
2016-Jun-16 18:19N 29°15' W 094°36'0 0.0
2016-Jun-16 17:25N 29°15' W 094°36'0 0.0
2016-Jun-16 16:31N 29°15' W 094°36'0 0.0
2016-Jun-16 15:16N 29°15' W 094°36'0 0.0
2016-Jun-16 14:28N 29°15' W 094°36'0 0.0
2016-Jun-16 13:31N 29°15' W 094°36'0 0.0
2016-Jun-16 12:04N 29°15' W 094°36'0 0.0
2016-Jun-16 11:31N 29°15' W 094°36'0 0.0
2016-Jun-16 04:19N 29°15' W 094°36'0 0.0
2016-Jun-15 17:07N 29°15' W 094°36'0 0.0
2016-Jun-15 16:19N 29°15' W 094°36'9 0.2
2016-Jun-13 14:16N 29°21' W 094°44'0 0.0
2016-Jun-13 12:33N 29°21' W 094°44'3 1.8
2016-Jun-13 11:06N 29°21' W 094°47'712.5
2016-Jun-13 10:33N 29°27' W 094°51'1312.7
2016-Jun-13 09:33N 29°38' W 094°58'9 9.3
2016-Jun-13 08:33N 29°45' W 095°04'  
2016-Jun-10 23:31N 29°45' W 095°06'4 4.3
2016-Jun-10 22:33N 29°44' W 095°01'9 8.8
2016-Jun-10 21:33N 29°36' W 094°57'1111.6
2016-Jun-10 20:33N 29°26' W 094°50'  

Dump ship's entire track history